Time,TemperatureF,DewpointF,PressureIn,WindDirection,WindDirectionDegrees,WindSpeedMPH,WindSpeedGustMPH,Humidity,HourlyPrecipIn,Conditions,Clouds,dailyrainin,SoftwareType,DateUTC
2013-04-10 00:00:00,46.0,46.0,29.97,North,11,2.7,11.0,100,0.00,,,0.00,VWS V14.01,2013-04-10 04:00:00,
2013-04-10 00:05:00,45.9,45.9,29.97,East,94,0.0,8.7,100,0.00,,,0.00,VWS V14.01,2013-04-10 04:05:00,
2013-04-10 00:10:00,45.9,45.9,29.94,ESE,112,2.7,5.4,100,0.00,,,0.00,VWS V14.01,2013-04-10 04:10:00,
2013-04-10 00:20:00,46.2,46.2,29.94,West,268,4.9,8.3,100,0.00,,,0.00,VWS V14.01,2013-04-10 04:20:00,
2013-04-10 00:25:00,46.2,46.2,29.91,SSW,195,3.6,8.3,100,0.00,,,0.00,VWS V14.01,2013-04-10 04:25:00,
2013-04-10 00:30:00,46.0,46.0,29.91,ESE,122,4.9,8.1,100,0.00,,,0.00,VWS V14.01,2013-04-10 04:30:00,
2013-04-10 00:35:00,46.0,46.0,29.91,East,93,5.8,8.7,100,0.00,,,0.00,VWS V14.01,2013-04-10 04:35:00,
2013-04-10 00:45:00,46.4,46.4,29.91,ESE,116,5.8,8.3,100,0.00,,,0.00,VWS V14.01,2013-04-10 04:45:00,
2013-04-10 00:55:00,46.6,46.6,29.88,ESE,118,2.2,8.3,100,0.00,,,0.00,VWS V14.01,2013-04-10 04:55:00,
2013-04-10 01:05:00,46.6,46.6,29.88,ESE,118,0.0,4.0,100,0.00,,,0.00,VWS V14.01,2013-04-10 05:05:00,
2013-04-10 01:10:00,46.6,46.6,29.88,ESE,118,0.0,2.7,100,0.00,,,0.00,VWS V14.01,2013-04-10 05:10:00,
2013-04-10 01:20:00,46.4,46.4,29.88,ESE,118,0.0,0.0,100,0.00,,,0.00,VWS V14.01,2013-04-10 05:20:00,
2013-04-10 01:30:00,46.6,46.6,29.88,SE,144,2.7,3.6,100,0.00,,,0.00,VWS V14.01,2013-04-10 05:30:00,
2013-04-10 01:40:00,46.6,46.6,29.88,SE,143,0.0,3.6,100,0.00,,,0.00,VWS V14.01,2013-04-10 05:40:00,
2013-04-10 01:50:00,46.6,46.6,29.88,SE,143,0.0,0.0,100,0.00,,,0.00,VWS V14.01,2013-04-10 05:50:00,
2013-04-10 01:55:00,46.6,46.6,29.91,SE,143,0.0,2.7,100,0.00,,,0.00,VWS V14.01,2013-04-10 05:55:00,
2013-04-10 02:05:00,46.6,46.6,29.91,NE,42,4.5,4.5,100,0.00,,,0.00,VWS V14.01,2013-04-10 06:05:00,
2013-04-10 02:10:00,46.9,46.9,29.88,NNW,333,4.5,6.3,100,0.00,,,0.00,VWS V14.01,2013-04-10 06:10:00,
2013-04-10 02:15:00,47.3,47.3,29.88,NNW,334,4.9,6.3,100,0.00,,,0.00,VWS V14.01,2013-04-10 06:15:00,
2013-04-10 02:25:00,47.1,47.1,29.91,NW,312,5.4,8.3,100,0.00,,,0.00,VWS V14.01,2013-04-10 06:25:00,
2013-04-10 02:30:00,47.1,47.1,29.91,NNW,344,4.0,8.3,100,0.00,,,0.00,VWS V14.01,2013-04-10 06:30:00,
2013-04-10 02:40:00,46.9,46.9,29.91,NNE,12,2.7,7.6,100,0.00,,,0.00,VWS V14.01,2013-04-10 06:40:00,
2013-04-10 02:50:00,46.4,46.4,29.91,NNW,342,2.7,8.7,100,0.00,,,0.00,VWS V14.01,2013-04-10 06:50:00,
2013-04-10 02:55:00,46.2,46.2,29.91,North,353,4.9,8.3,100,0.00,,,0.00,VWS V14.01,2013-04-10 06:55:00,
2013-04-10 03:05:00,45.5,45.5,29.91,NW,323,7.6,8.7,100,0.00,,,0.00,VWS V14.01,2013-04-10 07:05:00,
2013-04-10 03:15:00,45.1,45.1,29.91,North,0,4.0,8.7,100,0.00,,,0.00,VWS V14.01,2013-04-10 07:15:00,
2013-04-10 03:25:00,45.1,45.1,29.91,North,353,3.6,4.9,100,0.00,,,0.00,VWS V14.01,2013-04-10 07:25:00,
2013-04-10 03:30:00,45.1,45.1,29.91,NNE,13,2.7,4.0,100,0.00,,,0.00,VWS V14.01,2013-04-10 07:30:00,
2013-04-10 03:40:00,45.0,45.0,29.91,North,353,2.2,7.2,100,0.00,,,0.00,VWS V14.01,2013-04-10 07:40:00,
2013-04-10 03:50:00,44.8,44.8,29.91,North,5,4.0,5.8,100,0.00,,,0.00,VWS V14.01,2013-04-10 07:50:00,
2013-04-10 04:00:00,44.6,44.6,29.91,NNW,346,2.7,5.4,100,0.00,,,0.00,VWS V14.01,2013-04-10 08:00:00,
2013-04-10 04:10:00,44.6,44.6,29.91,NNW,345,5.4,5.8,100,0.00,,,0.00,VWS V14.01,2013-04-10 08:10:00,
2013-04-10 04:15:00,44.4,44.4,29.91,NNW,336,2.7,5.8,100,0.00,,,0.00,VWS V14.01,2013-04-10 08:15:00,
2013-04-10 04:25:00,44.2,44.2,29.91,North,4,0.0,4.9,100,0.00,,,0.00,VWS V14.01,2013-04-10 08:25:00,
2013-04-10 04:30:00,44.2,44.2,29.91,NW,313,2.7,3.6,100,0.00,,,0.00,VWS V14.01,2013-04-10 08:30:00,
2013-04-10 04:35:00,44.2,44.2,29.91,NW,313,0.0,3.6,100,0.00,,,0.00,VWS V14.01,2013-04-10 08:35:00,
2013-04-10 04:45:00,44.6,44.6,29.91,NNW,343,2.2,4.0,100,0.00,,,0.00,VWS V14.01,2013-04-10 08:45:00,
2013-04-10 04:50:00,44.4,44.4,29.91,WNW,283,4.0,4.9,100,0.00,,,0.00,VWS V14.01,2013-04-10 08:50:00,
2013-04-10 05:00:00,44.2,44.2,29.94,WNW,300,4.0,5.4,100,0.00,,,0.00,VWS V14.01,2013-04-10 09:00:00,
2013-04-10 05:10:00,44.2,44.2,29.91,WNW,300,0.0,4.0,100,0.00,,,0.00,VWS V14.01,2013-04-10 09:10:00,
2013-04-10 05:15:00,44.2,44.2,29.91,WNW,300,0.0,2.2,100,0.00,,,0.00,VWS V14.01,2013-04-10 09:15:00,
2013-04-10 05:25:00,44.4,44.4,29.91,WNW,300,3.6,3.6,100,0.00,,,0.00,VWS V14.01,2013-04-10 09:25:00,
2013-04-10 05:35:00,44.2,44.2,29.91,WNW,290,5.4,6.3,100,0.00,,,0.00,VWS V14.01,2013-04-10 09:35:00,
2013-04-10 05:45:00,44.4,44.4,29.91,WNW,297,5.8,6.3,100,0.00,,,0.00,VWS V14.01,2013-04-10 09:45:00,
2013-04-10 05:55:00,44.4,44.4,29.94,NW,317,3.1,6.3,100,0.00,,,0.00,VWS V14.01,2013-04-10 09:55:00,
2013-04-10 06:00:00,44.4,44.4,29.94,NW,326,2.7,4.9,100,0.00,,,0.00,VWS V14.01,2013-04-10 10:00:00,
2013-04-10 06:10:00,44.6,44.6,29.94,NW,317,3.6,4.0,100,0.00,,,0.00,VWS V14.01,2013-04-10 10:10:00,
2013-04-10 06:20:00,44.6,44.6,29.94,NW,315,0.0,4.9,100,0.00,,,0.00,VWS V14.01,2013-04-10 10:20:00,
2013-04-10 06:30:00,44.6,44.6,29.94,NNE,17,0.0,4.0,100,0.00,,,0.00,VWS V14.01,2013-04-10 10:30:00,
2013-04-10 06:35:00,44.6,44.6,29.94,NNW,337,3.1,3.6,100,0.00,,,0.00,VWS V14.01,2013-04-10 10:35:00,
2013-04-10 06:45:00,44.6,44.6,29.94,North,353,2.2,3.6,100,0.00,,,0.00,VWS V14.01,2013-04-10 10:45:00,
2013-04-10 06:50:00,44.6,44.6,29.94,NNW,345,6.3,6.3,100,0.00,,,0.00,VWS V14.01,2013-04-10 10:50:00,
2013-04-10 06:55:00,44.6,44.6,29.94,North,357,3.6,6.3,100,0.00,,,0.00,VWS V14.01,2013-04-10 10:55:00,
2013-04-10 07:05:00,44.6,44.6,29.94,NNW,342,3.1,5.4,100,0.00,,,0.00,VWS V14.01,2013-04-10 11:05:00,
2013-04-10 07:10:00,44.6,44.6,29.94,North,353,4.0,4.9,100,0.00,,,0.00,VWS V14.01,2013-04-10 11:10:00,
2013-04-10 07:20:00,44.6,44.6,29.94,NNW,337,4.0,6.3,100,0.00,,,0.00,VWS V14.01,2013-04-10 11:20:00,
2013-04-10 07:30:00,44.6,44.6,29.94,NNW,341,5.8,8.1,100,0.00,,,0.00,VWS V14.01,2013-04-10 11:30:00,
2013-04-10 07:40:00,44.6,44.6,29.94,North,357,3.1,6.3,100,0.00,,,0.00,VWS V14.01,2013-04-10 11:40:00,
2013-04-10 07:45:00,44.6,44.6,29.94,North,357,3.6,5.8,100,0.00,,,0.00,VWS V14.01,2013-04-10 11:45:00,
2013-04-10 07:55:00,44.6,44.6,29.97,NNW,328,0.0,5.8,100,0.00,,,0.00,VWS V14.01,2013-04-10 11:55:00,
2013-04-10 08:05:00,45.0,45.0,29.97,NNE,31,0.0,3.6,100,0.00,,,0.00,VWS V14.01,2013-04-10 12:05:00,
2013-04-10 08:15:00,44.8,44.8,29.94,NNE,12,2.7,5.4,100,0.00,,,0.00,VWS V14.01,2013-04-10 12:15:00,
2013-04-10 08:20:00,45.0,45.0,29.94,NE,39,3.1,5.4,100,0.00,,,0.00,VWS V14.01,2013-04-10 12:20:00,
2013-04-10 08:25:00,45.1,45.1,29.94,NE,50,3.1,5.4,100,0.00,,,0.00,VWS V14.01,2013-04-10 12:25:00,
2013-04-10 08:30:00,45.0,45.0,29.94,NE,40,6.3,6.3,100,0.00,,,0.00,VWS V14.01,2013-04-10 12:30:00,
2013-04-10 08:40:00,45.1,45.1,29.97,North,350,4.0,6.3,100,0.00,,,0.00,VWS V14.01,2013-04-10 12:40:00,
2013-04-10 08:45:00,45.1,45.1,29.97,NNW,342,2.7,5.4,100,0.00,,,0.00,VWS V14.01,2013-04-10 12:45:00,
2013-04-10 08:55:00,45.0,45.0,29.97,North,5,3.1,4.0,100,0.00,,,0.00,VWS V14.01,2013-04-10 12:55:00,
2013-04-10 09:05:00,45.7,45.7,29.97,North,350,2.2,5.4,100,0.00,,,0.00,VWS V14.01,2013-04-10 13:05:00,
2013-04-10 09:15:00,45.9,45.9,29.97,NW,314,2.7,4.0,100,0.00,,,0.00,VWS V14.01,2013-04-10 13:15:00,
2013-04-10 09:20:00,45.9,45.9,29.97,WNW,300,2.2,4.0,100,0.00,,,0.00,VWS V14.01,2013-04-10 13:20:00,
2013-04-10 09:30:00,46.2,46.2,29.97,West,281,3.1,4.0,100,0.00,,,0.00,VWS V14.01,2013-04-10 13:30:00,
2013-04-10 09:40:00,46.0,46.0,29.97,NW,319,3.1,4.9,100,0.00,,,0.00,VWS V14.01,2013-04-10 13:40:00,
2013-04-10 09:50:00,46.2,46.2,29.97,WNW,290,4.9,4.9,100,0.00,,,0.00,VWS V14.01,2013-04-10 13:50:00,
2013-04-10 10:00:00,46.6,46.6,29.97,NNW,334,2.7,5.4,100,0.00,,,0.00,VWS V14.01,2013-04-10 14:00:00,
2013-04-10 10:05:00,47.1,47.1,29.97,North,350,4.0,5.4,100,0.00,,,0.00,VWS V14.01,2013-04-10 14:05:00,
2013-04-10 10:15:00,47.8,47.8,29.97,NNW,344,3.6,5.8,100,0.00,,,0.00,VWS V14.01,2013-04-10 14:15:00,
2013-04-10 10:25:00,48.0,48.0,29.94,NE,48,6.3,6.3,100,0.00,,,0.00,VWS V14.01,2013-04-10 14:25:00,
2013-04-10 10:35:00,47.8,47.8,29.94,NNE,13,2.7,6.3,100,0.00,,,0.00,VWS V14.01,2013-04-10 14:35:00,
2013-04-10 10:40:00,47.7,47.7,29.97,NNW,333,2.2,4.9,100,0.00,,,0.00,VWS V14.01,2013-04-10 14:40:00,
2013-04-10 10:50:00,47.5,47.5,29.97,North,357,4.0,5.8,100,0.00,,,0.00,VWS V14.01,2013-04-10 14:50:00,
2013-04-10 11:00:00,47.7,47.7,29.94,NNW,337,3.6,5.8,100,0.00,,,0.00,VWS V14.01,2013-04-10 15:00:00,
2013-04-10 11:05:00,47.7,47.7,29.94,NNW,345,4.0,5.8,100,0.00,,,0.00,VWS V14.01,2013-04-10 15:05:00,
2013-04-10 11:15:00,46.9,46.9,29.97,West,268,4.9,5.8,100,0.00,,,0.00,VWS V14.01,2013-04-10 15:15:00,
2013-04-10 11:25:00,46.4,46.4,29.97,West,275,4.0,6.3,100,0.00,,,0.00,VWS V14.01,2013-04-10 15:25:00,
2013-04-10 11:35:00,46.4,46.4,29.97,WSW,243,2.7,4.9,100,0.00,,,0.00,VWS V14.01,2013-04-10 15:35:00,
2013-04-10 11:40:00,46.9,46.9,29.97,NW,310,0.0,4.9,100,0.00,,,0.00,VWS V14.01,2013-04-10 15:40:00,
2013-04-10 11:50:00,46.9,46.9,29.97,West,270,5.4,6.3,100,0.00,,,0.00,VWS V14.01,2013-04-10 15:50:00,
2013-04-10 11:55:00,46.8,46.8,29.97,NW,308,3.6,6.7,100,0.00,,,0.00,VWS V14.01,2013-04-10 15:55:00,
2013-04-10 12:00:00,46.6,46.6,29.97,NW,306,5.4,8.1,100,0.00,,,0.00,VWS V14.01,2013-04-10 16:00:00,
2013-04-10 12:10:00,46.9,46.9,29.97,NNE,31,3.1,8.1,100,0.00,,,0.00,VWS V14.01,2013-04-10 16:10:00,
2013-04-10 12:20:00,47.1,47.1,29.97,NE,35,0.0,4.0,100,0.00,,,0.00,VWS V14.01,2013-04-10 16:20:00,
2013-04-10 12:25:00,47.3,47.3,29.97,SSE,147,0.0,2.7,100,0.00,,,0.00,VWS V14.01,2013-04-10 16:25:00,
2013-04-10 12:40:00,46.2,46.2,29.97,NE,49,3.6,13.2,100,0.00,,,0.00,VWS V14.01,2013-04-10 16:40:00,
2013-04-10 12:45:00,46.4,46.4,29.97,NNW,334,3.6,10.5,100,0.00,,,0.00,VWS V14.01,2013-04-10 16:45:00,
2013-04-10 12:55:00,46.4,46.4,30.00,North,349,5.8,8.1,100,0.00,,,0.00,VWS V14.01,2013-04-10 16:55:00,
2013-04-10 13:00:00,46.4,46.4,30.00,North,0,3.1,7.6,100,0.00,,,0.00,VWS V14.01,2013-04-10 17:00:00,
2013-04-10 13:10:00,46.9,46.9,29.97,NE,37,3.1,5.4,100,0.00,,,0.00,VWS V14.01,2013-04-10 17:10:00,
2013-04-10 13:15:00,46.9,46.9,29.97,NE,37,4.0,4.0,100,0.00,,,0.00,VWS V14.01,2013-04-10 17:15:00,
2013-04-10 13:20:00,47.5,47.5,29.97,East,85,4.0,6.3,100,0.00,,,0.00,VWS V14.01,2013-04-10 17:20:00,
2013-04-10 13:30:00,47.3,47.3,29.85,SW,236,2.7,15.0,100,0.00,,,0.00,VWS V14.01,2013-04-10 17:30:00,
2013-04-10 13:35:00,47.7,47.7,29.85,West,278,2.2,15.0,100,0.00,,,0.00,VWS V14.01,2013-04-10 17:35:00,
2013-04-10 13:45:00,48.7,48.7,29.91,East,97,2.7,5.8,100,0.00,,,0.00,VWS V14.01,2013-04-10 17:45:00,
2013-04-10 13:55:00,50.0,50.0,29.91,ESE,118,2.7,7.6,100,0.00,,,0.00,VWS V14.01,2013-04-10 17:55:00,
2013-04-10 14:00:00,50.5,50.5,29.91,East,99,4.0,7.6,100,0.00,,,0.00,VWS V14.01,2013-04-10 18:00:00,
2013-04-10 14:10:00,50.5,50.5,29.91,ESE,113,3.1,6.3,100,0.00,,,0.00,VWS V14.01,2013-04-10 18:10:00,
2013-04-10 14:15:00,50.9,50.9,29.91,ESE,113,0.0,5.4,100,0.00,,,0.00,VWS V14.01,2013-04-10 18:15:00,
2013-04-10 14:20:00,50.7,50.7,29.91,ESE,112,2.2,4.0,100,0.00,,,0.00,VWS V14.01,2013-04-10 18:20:00,
2013-04-10 14:30:00,50.5,50.5,29.91,ESE,112,0.0,3.1,100,0.00,,,0.00,VWS V14.01,2013-04-10 18:30:00,
2013-04-10 14:40:00,50.2,50.2,29.91,East,94,2.7,4.9,100,0.00,,,0.00,VWS V14.01,2013-04-10 18:40:00,
2013-04-10 14:45:00,50.0,50.0,29.91,East,93,5.8,5.8,100,0.00,,,0.00,VWS V14.01,2013-04-10 18:45:00,
2013-04-10 14:55:00,50.0,50.0,29.88,ESE,107,0.0,5.8,100,0.00,,,0.00,VWS V14.01,2013-04-10 18:55:00,
2013-04-10 15:00:00,50.0,50.0,29.88,East,90,3.6,5.4,100,0.00,,,0.00,VWS V14.01,2013-04-10 19:00:00,
2013-04-10 15:05:00,50.0,50.0,29.88,East,95,0.0,5.8,100,0.00,,,0.00,VWS V14.01,2013-04-10 19:05:00,
2013-04-10 15:15:00,50.0,50.0,29.88,ENE,60,2.2,4.0,100,0.00,,,0.00,VWS V14.01,2013-04-10 19:15:00,
2013-04-10 15:20:00,50.0,50.0,29.88,ENE,60,2.2,4.0,100,0.00,,,0.00,VWS V14.01,2013-04-10 19:20:00,
2013-04-10 15:30:00,50.0,50.0,29.88,ENE,60,0.0,2.7,100,0.00,,,0.00,VWS V14.01,2013-04-10 19:30:00,
2013-04-10 15:35:00,50.0,50.0,29.88,ENE,60,0.0,2.7,100,0.00,,,0.00,VWS V14.01,2013-04-10 19:35:00,
2013-04-10 15:45:00,49.8,49.8,29.85,ENE,60,0.0,2.7,100,0.00,,,0.00,VWS V14.01,2013-04-10 19:45:00,
2013-04-10 15:55:00,49.5,49.5,29.85,NE,38,2.7,5.4,100,0.00,,,0.00,VWS V14.01,2013-04-10 19:55:00,
2013-04-10 16:05:00,48.9,48.9,29.85,NNE,33,4.0,5.4,100,0.00,,,0.00,VWS V14.01,2013-04-10 20:05:00,
2013-04-10 16:15:00,48.6,48.6,29.83,NNW,336,5.4,5.4,100,0.00,,,0.00,VWS V14.01,2013-04-10 20:15:00,
2013-04-10 16:20:00,48.4,48.4,29.83,NNE,16,3.6,6.7,100,0.00,,,0.00,VWS V14.01,2013-04-10 20:20:00,
2013-04-10 16:30:00,48.0,48.0,29.83,North,6,3.6,8.7,100,0.00,,,0.00,VWS V14.01,2013-04-10 20:30:00,
2013-04-10 16:35:00,48.0,48.0,29.83,NNE,20,2.7,8.7,100,0.00,,,0.00,VWS V14.01,2013-04-10 20:35:00,
2013-04-10 16:40:00,47.8,47.8,29.85,NE,47,2.7,8.7,100,0.00,,,0.00,VWS V14.01,2013-04-10 20:40:00,
2013-04-10 16:50:00,47.8,47.8,29.85,NW,326,3.6,11.9,100,0.00,,,0.00,VWS V14.01,2013-04-10 20:50:00,
2013-04-10 17:00:00,47.7,47.7,29.85,NE,37,6.3,11.9,100,0.00,,,0.00,VWS V14.01,2013-04-10 21:00:00,
2013-04-10 17:05:00,47.8,47.8,29.85,ENE,74,4.5,8.3,100,0.00,,,0.00,VWS V14.01,2013-04-10 21:05:00,
2013-04-10 17:15:00,47.7,47.7,29.85,North,9,2.2,6.3,100,0.00,,,0.00,VWS V14.01,2013-04-10 21:15:00,
2013-04-10 17:20:00,47.7,47.7,29.85,SSW,209,3.1,6.3,100,0.00,,,0.00,VWS V14.01,2013-04-10 21:20:00,
2013-04-10 17:25:00,47.8,47.8,29.88,NW,309,15.0,15.0,100,0.00,,,0.00,VWS V14.01,2013-04-10 21:25:00,
2013-04-10 17:35:00,46.8,46.8,29.88,NW,326,8.1,18.3,100,0.00,,,0.00,VWS V14.01,2013-04-10 21:35:00,
2013-04-10 17:40:00,46.6,46.6,29.91,NNE,28,4.9,15.4,100,0.00,,,0.00,VWS V14.01,2013-04-10 21:40:00,
2013-04-10 17:50:00,46.2,46.2,29.91,East,96,8.1,10.5,100,0.00,,,0.00,VWS V14.01,2013-04-10 21:50:00,
2013-04-10 17:55:00,46.4,46.4,29.91,SE,130,7.2,11.4,100,0.00,,,0.00,VWS V14.01,2013-04-10 21:55:00,
2013-04-10 18:00:00,46.4,46.4,29.91,ESE,116,3.1,11.4,100,0.00,,,0.00,VWS V14.01,2013-04-10 22:00:00,
2013-04-10 18:05:00,46.6,46.6,29.91,NNE,13,4.5,11.4,100,0.00,,,0.00,VWS V14.01,2013-04-10 22:05:00,
2013-04-10 18:15:00,46.8,46.8,29.91,North,353,3.6,6.3,100,0.00,,,0.00,VWS V14.01,2013-04-10 22:15:00,
2013-04-10 18:25:00,46.9,46.9,29.83,NW,313,3.6,6.3,100,0.00,,,0.00,VWS V14.01,2013-04-10 22:25:00,
2013-04-10 18:35:00,47.1,47.1,29.83,North,353,3.6,6.3,100,0.00,,,0.00,VWS V14.01,2013-04-10 22:35:00,
2013-04-10 18:45:00,46.8,46.8,29.85,NNE,20,5.4,6.3,100,0.00,,,0.00,VWS V14.01,2013-04-10 22:45:00,
2013-04-10 18:50:00,46.8,46.8,29.85,North,350,5.4,8.1,100,0.00,,,0.00,VWS V14.01,2013-04-10 22:50:00,
2013-04-10 19:00:00,46.6,46.6,29.85,North,6,3.6,8.7,100,0.00,,,0.00,VWS V14.01,2013-04-10 23:00:00,
2013-04-10 19:10:00,46.4,46.4,29.85,NW,321,5.8,6.7,100,0.00,,,0.00,VWS V14.01,2013-04-10 23:10:00,
2013-04-10 19:20:00,46.4,46.4,29.85,NW,323,6.3,6.7,100,0.00,,,0.00,VWS V14.01,2013-04-10 23:20:00,
2013-04-10 19:25:00,46.4,46.4,29.88,NW,326,7.6,10.5,100,0.00,,,0.00,VWS V14.01,2013-04-10 23:25:00,
2013-04-10 19:30:00,46.2,46.2,29.88,NNW,348,3.1,10.5,100,0.00,,,0.00,VWS V14.01,2013-04-10 23:30:00,
2013-04-10 19:35:00,46.2,46.2,29.88,NNW,345,6.3,8.3,100,0.00,,,0.00,VWS V14.01,2013-04-10 23:35:00,
2013-04-10 19:40:00,46.0,46.0,29.88,NE,36,2.7,8.3,100,0.00,,,0.00,VWS V14.01,2013-04-10 23:40:00,
2013-04-10 19:45:00,46.0,46.0,29.88,NNW,341,5.8,9.2,100,0.00,,,0.00,VWS V14.01,2013-04-10 23:45:00,
2013-04-10 19:55:00,46.0,46.0,29.88,NNW,340,8.1,9.2,100,0.00,,,0.00,VWS V14.01,2013-04-10 23:55:00,
2013-04-10 20:00:00,46.0,46.0,29.88,NNW,345,7.2,10.5,100,0.00,,,0.00,VWS V14.01,2013-04-11 00:00:00,
2013-04-10 20:10:00,45.9,45.9,29.85,NNE,27,5.4,10.5,100,0.00,,,0.00,VWS V14.01,2013-04-11 00:10:00,
2013-04-10 20:20:00,45.3,45.3,29.85,ENE,61,8.1,11.0,100,0.00,,,0.00,VWS V14.01,2013-04-11 00:20:00,
2013-04-10 20:25:00,45.1,45.1,29.85,North,0,5.8,11.0,100,0.00,,,0.00,VWS V14.01,2013-04-11 00:25:00,
2013-04-10 20:35:00,45.0,45.0,29.85,NNW,330,8.7,12.8,100,0.00,,,0.00,VWS V14.01,2013-04-11 00:35:00,
2013-04-10 20:45:00,45.1,45.1,29.85,North,353,5.8,12.8,100,0.00,,,0.00,VWS V14.01,2013-04-11 00:45:00,
2013-04-10 20:55:00,45.0,45.0,29.88,NNW,327,6.3,10.1,100,0.00,,,0.00,VWS V14.01,2013-04-11 00:55:00,
2013-04-10 21:05:00,45.0,45.0,29.88,NNW,346,5.4,11.0,100,0.00,,,0.00,VWS V14.01,2013-04-11 01:05:00,
2013-04-10 21:10:00,45.0,45.0,29.91,NW,318,6.3,11.0,100,0.00,,,0.00,VWS V14.01,2013-04-11 01:10:00,
2013-04-10 21:20:00,45.1,45.1,29.91,NNW,344,5.8,8.1,100,0.00,,,0.00,VWS V14.01,2013-04-11 01:20:00,
2013-04-10 21:30:00,44.4,44.4,29.91,North,353,8.1,10.1,100,0.00,,,0.00,VWS V14.01,2013-04-11 01:30:00,
2013-04-10 21:40:00,44.2,44.2,29.91,North,11,8.3,8.7,100,0.00,,,0.00,VWS V14.01,2013-04-11 01:40:00,
2013-04-10 21:45:00,44.1,44.1,29.91,NNW,332,7.6,10.1,100,0.00,,,0.00,VWS V14.01,2013-04-11 01:45:00,
2013-04-10 21:55:00,43.9,43.9,29.91,NNW,333,4.0,10.1,100,0.00,,,0.00,VWS V14.01,2013-04-11 01:55:00,
2013-04-10 22:05:00,43.7,43.7,29.91,NW,322,3.6,8.3,100,0.00,,,0.00,VWS V14.01,2013-04-11 02:05:00,
2013-04-10 22:15:00,43.5,43.5,29.91,NNW,340,4.0,8.1,100,0.00,,,0.00,VWS V14.01,2013-04-11 02:15:00,
2013-04-10 22:20:00,43.3,43.3,29.91,NNW,344,10.5,10.5,100,0.00,,,0.00,VWS V14.01,2013-04-11 02:20:00,
2013-04-10 22:30:00,43.0,43.0,29.91,North,357,8.7,10.5,100,0.00,,,0.00,VWS V14.01,2013-04-11 02:30:00,
2013-04-10 22:40:00,42.8,42.8,29.91,NNW,327,3.6,10.1,100,0.00,,,0.00,VWS V14.01,2013-04-11 02:40:00,
2013-04-10 22:45:00,42.8,42.8,29.91,NW,316,5.4,7.6,100,0.00,,,0.00,VWS V14.01,2013-04-11 02:45:00,
2013-04-10 22:55:00,42.4,42.4,29.91,NW,326,5.4,8.1,100,0.00,,,0.00,VWS V14.01,2013-04-11 02:55:00,
2013-04-10 23:05:00,42.1,42.1,29.91,NW,320,6.3,6.7,100,0.00,,,0.00,VWS V14.01,2013-04-11 03:05:00,
2013-04-10 23:15:00,41.9,41.9,29.91,NNW,339,5.4,7.6,100,0.00,,,0.00,VWS V14.01,2013-04-11 03:15:00,
2013-04-10 23:25:00,41.7,41.7,29.94,North,353,4.9,6.3,100,0.00,,,0.00,VWS V14.01,2013-04-11 03:25:00,
2013-04-10 23:30:00,41.9,41.9,29.94,NW,324,4.0,6.3,100,0.00,,,0.00,VWS V14.01,2013-04-11 03:30:00,
2013-04-10 23:40:00,41.5,41.5,29.94,North,353,5.8,8.7,100,0.00,,,0.00,VWS V14.01,2013-04-11 03:40:00,
2013-04-10 23:50:00,41.2,41.2,29.94,NNW,335,5.8,8.3,100,0.00,,,0.00,VWS V14.01,2013-04-11 03:50:00,